Terminal Aerodrome Forecast
Issued by NWS Twin Cities, MN

Home | Current Version | Previous Version | Text Only | Print | Product List | Glossary Off
Versions: 1 2 3 4 5 6 7 8 9 10 11 12 13 14 15 16 17 18 19 20

825
FTUS43 KMPX 231552 AAA
TAFSTC
TAF AMD
KSTC 231552Z 2316/2412 09008KT P6SM BKN006 OVC012
     FM231700 09010KT P6SM BKN015 OVC035
     FM232000 11010G16KT P6SM -SHRA BKN020 OVC040
     FM240000 11009KT P6SM SCT008 OVC012
     FM240600 11008KT 5SM BR OVC006=

USA.gov is the U.S. government's official web portal to all federal, state and local government web resources and services.